Time;durP1;ratioP1;P1;durP2;ratioP2;P2;SDS_P1;SDS_P2;PMS_P1;PMS_P2;Temp;Humidity;BMP_temperature;BMP_pressure;BME280_temperature;BME280_humidity;BME280_pressure;Samples;Min_cycle;Max_cycle;Signal;HPM_P1;HPM_P2
2022/04/19 00:01:38;;;;;;;4.50;3.30;;;11.90;48.30;;;;;;5134321;27;20029;-74
2022/04/19 00:04:04;;;;;;;8.00;3.10;;;11.90;48.30;;;;;;5135638;27;20098;-74
2022/04/19 00:06:30;;;;;;;4.38;2.83;;;11.80;48.00;;;;;;5135831;27;20020;-74
2022/04/19 00:08:56;;;;;;;3.45;2.45;;;11.80;48.30;;;;;;5132264;27;20027;-74
2022/04/19 00:11:22;;;;;;;3.70;2.60;;;11.80;48.30;;;;;;5135653;27;20070;-74
2022/04/19 00:13:48;;;;;;;4.40;2.97;;;11.80;48.20;;;;;;5123002;27;20382;-74
2022/04/19 00:16:17;;;;;;;7.55;3.22;;;11.80;48.20;;;;;;5135359;27;20024;-74
2022/04/19 00:18:42;;;;;;;5.05;3.20;;;11.80;48.30;;;;;;5117068;27;20068;-74
2022/04/19 00:21:08;;;;;;;4.30;2.72;;;11.80;48.30;;;;;;5135251;27;20027;-74
2022/04/19 00:23:34;;;;;;;4.60;2.78;;;11.80;48.40;;;;;;5135805;27;20076;-74
2022/04/19 00:26:00;;;;;;;4.18;3.10;;;11.80;48.50;;;;;;5135482;27;20374;-74
2022/04/19 00:28:27;;;;;;;4.43;2.58;;;11.90;48.80;;;;;;5135153;27;20378;-74
2022/04/19 00:30:52;;;;;;;6.75;2.92;;;11.90;48.80;;;;;;5133678;27;20038;-74
2022/04/19 00:33:18;;;;;;;4.72;2.70;;;11.90;48.60;;;;;;5134981;27;20098;-74
2022/04/19 00:35:44;;;;;;;3.95;2.85;;;11.90;48.50;;;;;;5135313;27;20084;-76
2022/04/19 00:38:10;;;;;;;4.90;3.25;;;11.90;48.50;;;;;;5135244;27;20038;-74
2022/04/19 00:40:36;;;;;;;4.95;2.83;;;12.00;48.40;;;;;;5121488;27;20075;-74
2022/04/19 00:43:03;;;;;;;4.47;2.88;;;11.90;48.30;;;;;;5116664;27;20063;-75
2022/04/19 00:45:31;;;;;;;3.92;2.40;;;12.00;48.00;;;;;;5135039;27;20015;-75
2022/04/19 00:47:57;;;;;;;4.00;2.85;;;12.00;47.90;;;;;;5116457;27;20106;-74
2022/04/19 00:50:24;;;;;;;5.68;2.67;;;12.00;47.80;;;;;;5116276;27;20110;-74
2022/04/19 00:52:50;;;;;;;4.72;2.60;;;12.10;47.60;;;;;;5116551;27;20378;-74
2022/04/19 00:55:16;;;;;;;4.25;2.80;;;12.10;47.40;;;;;;5123171;27;20049;-74
2022/04/19 00:57:46;;;;;;;5.28;2.53;;;12.10;47.40;;;;;;5134537;27;20048;-74
2022/04/19 01:00:13;;;;;;;5.43;2.97;;;12.10;47.50;;;;;;5133408;27;20023;-74
2022/04/19 01:02:40;;;;;;;5.53;2.35;;;12.10;47.30;;;;;;5134655;27;20046;-76
2022/04/19 01:05:06;;;;;;;3.45;2.58;;;12.10;47.30;;;;;;5133159;27;20030;-74
2022/04/19 01:07:33;;;;;;;7.97;2.63;;;12.10;47.20;;;;;;5133250;27;20079;-75
2022/04/19 01:10:00;;;;;;;3.63;2.42;;;12.10;47.20;;;;;;5133068;27;20023;-74
2022/04/19 01:15:11;;;;;;;5.63;2.55;;;12.20;47.20;;;;;;5129759;27;20022;-75
2022/04/19 01:17:39;;;;;;;5.65;2.80;;;12.20;47.10;;;;;;5132707;27;20463;-74
2022/04/19 01:20:12;;;;;;;4.28;2.90;;;12.10;47.30;;;;;;5134567;27;20101;-74
2022/04/19 01:22:42;;;;;;;4.93;2.67;;;12.10;47.30;;;;;;5134390;27;20041;-75
2022/04/19 01:25:10;;;;;;;3.78;2.72;;;12.10;47.40;;;;;;5132918;27;20079;-74
2022/04/19 01:27:37;;;;;;;4.10;2.80;;;12.10;47.50;;;;;;5134133;27;20024;-75
2022/04/19 01:30:09;;;;;;;3.40;2.35;;;12.10;47.70;;;;;;5132852;28;20038;-74
2022/04/19 01:32:36;;;;;;;4.32;2.88;;;12.10;48.00;;;;;;5134259;28;20046;-74
2022/04/19 01:35:21;;;;;;;6.30;3.08;;;12.10;48.10;;;;;;5133950;28;20031;-74
2022/04/19 01:37:49;;;;;;;3.28;2.38;;;12.10;48.20;;;;;;5127718;28;20028;-74
2022/04/19 01:40:16;;;;;;;3.85;2.78;;;12.10;48.10;;;;;;5131585;28;20127;-74
2022/04/19 01:42:45;;;;;;;4.43;2.53;;;12.10;47.80;;;;;;5134223;28;20035;-74
2022/04/19 01:45:15;;;;;;;3.97;2.40;;;12.10;47.60;;;;;;5134193;28;20050;-74
2022/04/19 01:47:41;;;;;;;4.40;2.70;;;12.10;47.60;;;;;;5134050;28;20022;-74
2022/04/19 01:50:09;;;;;;;3.13;2.15;;;12.10;47.60;;;;;;5115959;28;20030;-74
2022/04/19 01:52:37;;;;;;;5.28;2.92;;;12.10;47.50;;;;;;5134103;28;20029;-74
2022/04/19 01:55:07;;;;;;;5.78;2.67;;;12.20;47.50;;;;;;5115656;28;20053;-75
2022/04/19 01:57:33;;;;;;;4.07;2.00;;;12.20;47.30;;;;;;5115716;28;20123;-74
2022/04/19 01:59:59;;;;;;;4.03;2.38;;;12.20;47.30;;;;;;5134033;28;20046;-75
2022/04/19 02:02:25;;;;;;;4.22;2.05;;;12.20;47.40;;;;;;5115221;28;20034;-75
2022/04/19 02:04:51;;;;;;;3.95;2.70;;;12.20;47.40;;;;;;5132445;28;20023;-75
2022/04/19 02:07:17;;;;;;;4.82;2.38;;;12.30;47.50;;;;;;5133644;28;20019;-74
2022/04/19 02:09:43;;;;;;;5.43;2.58;;;12.30;47.40;;;;;;5133769;27;20459;-74
2022/04/19 02:12:09;;;;;;;4.00;2.47;;;12.30;47.40;;;;;;5137110;27;20027;-76
2022/04/19 02:14:36;;;;;;;4.85;2.83;;;12.30;47.30;;;;;;5117758;27;20023;-74
2022/04/19 02:17:02;;;;;;;5.00;2.95;;;12.30;47.40;;;;;;5136780;27;20462;-74
2022/04/19 02:19:28;;;;;;;4.57;2.30;;;12.30;47.50;;;;;;5129327;27;20026;-75
2022/04/19 02:21:54;;;;;;;4.32;2.88;;;12.30;47.50;;;;;;5137363;27;20471;-74
2022/04/19 02:24:19;;;;;;;4.57;2.78;;;12.30;47.60;;;;;;5119248;27;20023;-74
2022/04/19 02:26:45;;;;;;;6.10;3.22;;;12.30;47.50;;;;;;5119269;27;20019;-74
2022/04/19 02:29:11;;;;;;;5.70;2.97;;;12.30;47.70;;;;;;5119205;27;20051;-74
2022/04/19 02:31:38;;;;;;;4.50;2.92;;;12.30;47.80;;;;;;5137624;27;20075;-74
2022/04/19 02:34:06;;;;;;;4.63;2.55;;;12.30;47.70;;;;;;5137494;27;20034;-76
2022/04/19 02:36:32;;;;;;;4.00;2.55;;;12.30;47.70;;;;;;5137017;27;20034;-74
2022/04/19 02:38:59;;;;;;;3.80;2.67;;;12.30;47.80;;;;;;5118823;27;20032;-74
2022/04/19 02:41:25;;;;;;;4.05;2.53;;;12.30;47.90;;;;;;5118482;27;20531;-74
2022/04/19 02:43:51;;;;;;;3.08;2.05;;;12.30;48.10;;;;;;5137204;27;20019;-75
2022/04/19 02:46:18;;;;;;;5.53;2.60;;;12.30;47.90;;;;;;5118913;27;20034;-74
2022/04/19 02:48:44;;;;;;;4.47;2.75;;;12.30;47.90;;;;;;5137205;27;20015;-74
2022/04/19 02:51:10;;;;;;;4.15;2.50;;;12.30;48.00;;;;;;5118575;27;20035;-74
2022/04/19 02:53:36;;;;;;;3.58;2.47;;;12.30;48.00;;;;;;5137365;27;20031;-74
2022/04/19 02:56:03;;;;;;;3.67;2.38;;;12.40;48.00;;;;;;5118627;27;20027;-74
2022/04/19 02:58:30;;;;;;;4.60;2.60;;;12.30;47.90;;;;;;5136758;27;20386;-74
2022/04/19 03:00:55;;;;;;;4.15;2.60;;;12.30;48.00;;;;;;5118530;27;20035;-74
2022/04/19 03:03:21;;;;;;;3.13;2.30;;;12.30;48.10;;;;;;5118435;27;20596;-74
2022/04/19 03:05:48;;;;;;;2.45;2.00;;;12.30;48.00;;;;;;5118710;27;20019;-74
2022/04/19 03:08:14;;;;;;;4.80;2.55;;;12.30;48.10;;;;;;5118387;27;20019;-74
2022/04/19 03:10:40;;;;;;;4.38;2.63;;;12.30;48.30;;;;;;5136802;27;20023;-74
2022/04/19 03:13:06;;;;;;;3.40;2.63;;;12.30;48.20;;;;;;5118214;27;20019;-74
2022/04/19 03:15:34;;;;;;;4.25;2.30;;;12.30;48.20;;;;;;5136742;27;20030;-74
2022/04/19 03:18:01;;;;;;;3.90;2.40;;;12.30;48.10;;;;;;5136648;27;20033;-74
2022/04/19 03:20:27;;;;;;;3.83;2.28;;;12.30;48.20;;;;;;5117634;27;20035;-74
2022/04/19 03:28:21;;;;;;;4.22;2.47;;;12.40;48.30;;;;;;5136223;27;20038;-76
2022/04/19 03:30:46;;;;;;;4.57;2.25;;;12.30;48.20;;;;;;5136348;27;20027;-74
2022/04/19 03:33:12;;;;;;;3.55;2.35;;;12.30;48.30;;;;;;5136234;27;20031;-74
2022/04/19 03:35:38;;;;;;;3.33;2.38;;;12.30;48.30;;;;;;5132672;27;20373;-75
2022/04/19 03:38:05;;;;;;;3.13;2.25;;;12.30;48.10;;;;;;5117636;27;20454;-74
2022/04/19 03:40:31;;;;;;;7.72;2.65;;;12.30;48.30;;;;;;5117201;27;20055;-74
2022/04/19 03:42:57;;;;;;;4.20;2.75;;;12.30;48.10;;;;;;5117650;27;20034;-75
2022/04/19 03:45:23;;;;;;;3.97;2.90;;;12.30;48.20;;;;;;5117659;27;20038;-74
2022/04/19 03:47:49;;;;;;;3.53;2.38;;;12.30;48.00;;;;;;5117682;27;20564;-74
2022/04/19 03:50:15;;;;;;;5.05;2.75;;;12.30;47.90;;;;;;5135667;27;20454;-75
2022/04/19 03:52:41;;;;;;;4.40;2.70;;;12.30;48.00;;;;;;5117474;27;20027;-74
2022/04/19 03:55:08;;;;;;;3.35;2.30;;;12.30;48.00;;;;;;5117302;27;20019;-74
2022/04/19 03:57:34;;;;;;;4.43;2.85;;;12.40;48.10;;;;;;5117143;27;20023;-74
2022/04/19 04:00:00;;;;;;;4.28;2.50;;;12.30;48.30;;;;;;5135854;27;20023;-74
2022/04/19 04:02:26;;;;;;;10.93;2.75;;;12.30;48.30;;;;;;5117326;27;20447;-74
2022/04/19 04:04:52;;;;;;;3.42;2.15;;;12.40;48.40;;;;;;5117166;27;20035;-74
2022/04/19 04:07:18;;;;;;;5.82;2.78;;;12.40;48.40;;;;;;5117219;27;20347;-74
2022/04/19 04:09:44;;;;;;;5.68;3.90;;;12.40;48.30;;;;;;5117068;27;20023;-75
2022/04/19 04:12:14;;;;;;;5.57;3.97;;;12.40;48.20;;;;;;5117084;27;20027;-75
2022/04/19 04:14:41;;;;;;;4.57;3.00;;;12.40;48.30;;;;;;5116344;27;20035;-74
2022/04/19 04:17:07;;;;;;;4.20;2.63;;;12.40;48.40;;;;;;5115059;28;20098;-74
2022/04/19 04:19:33;;;;;;;4.43;2.70;;;12.40;48.20;;;;;;5096419;28;20455;-74
2022/04/19 04:21:59;;;;;;;3.30;2.40;;;12.40;48.10;;;;;;5096349;28;20028;-74
2022/04/19 04:24:25;;;;;;;4.45;2.70;;;12.40;47.90;;;;;;5098468;27;20486;-74
2022/04/19 04:26:51;;;;;;;3.85;2.47;;;12.40;47.80;;;;;;5116567;27;20067;-75
2022/04/19 04:29:16;;;;;;;5.57;2.40;;;12.40;47.70;;;;;;5135072;27;20033;-74
2022/04/19 04:31:42;;;;;;;5.80;3.33;;;12.50;47.90;;;;;;5116291;27;20027;-74
2022/04/19 04:34:08;;;;;;;5.18;2.45;;;12.50;48.30;;;;;;5116269;27;20045;-74
2022/04/19 04:36:35;;;;;;;6.13;2.92;;;12.50;48.40;;;;;;5134695;27;20467;-75
2022/04/19 04:39:01;;;;;;;7.50;3.30;;;12.50;48.80;;;;;;5135205;27;20106;-75
2022/04/19 04:41:27;;;;;;;5.82;3.42;;;12.60;48.90;;;;;;5134404;27;20047;-74
2022/04/19 04:43:52;;;;;;;5.38;3.10;;;12.60;48.90;;;;;;5116594;27;20462;-74
2022/04/19 04:51:47;;;;;;;6.00;3.58;;;12.70;49.30;;;;;;5134525;27;20034;-75
2022/04/19 04:54:13;;;;;;;5.05;3.08;;;12.70;49.10;;;;;;5134748;27;20027;-74
2022/04/19 04:56:38;;;;;;;6.88;3.15;;;12.70;48.80;;;;;;5134780;27;20524;-74
2022/04/19 04:59:04;;;;;;;6.80;3.15;;;12.70;48.70;;;;;;5134560;27;20035;-74
2022/04/19 05:01:30;;;;;;;6.40;3.30;;;12.70;48.60;;;;;;5134215;27;20479;-74
2022/04/19 05:03:56;;;;;;;7.43;4.03;;;12.80;48.80;;;;;;5134566;27;20019;-76
2022/04/19 05:06:21;;;;;;;7.13;4.18;;;12.80;48.80;;;;;;5115667;27;20023;-76
2022/04/19 05:08:47;;;;;;;6.05;3.60;;;12.80;48.70;;;;;;5134773;27;20106;-74
2022/04/19 05:11:15;;;;;;;6.43;3.70;;;12.80;48.70;;;;;;5116104;27;20028;-75
2022/04/19 05:13:41;;;;;;;6.75;3.35;;;12.80;48.70;;;;;;5132154;27;20298;-74
2022/04/19 05:16:08;;;;;;;7.47;3.90;;;12.80;48.70;;;;;;5115796;27;20020;-75
2022/04/19 05:18:34;;;;;;;6.60;3.60;;;12.80;48.60;;;;;;5134330;27;20042;-74
2022/04/19 05:21:00;;;;;;;12.82;4.57;;;12.90;48.80;;;;;;5126488;27;20031;-74
2022/04/19 05:23:26;;;;;;;6.47;3.65;;;12.80;48.80;;;;;;5115275;28;20026;-74
2022/04/19 05:25:51;;;;;;;7.88;3.50;;;12.90;49.00;;;;;;5115782;27;20042;-75
2022/04/19 05:28:17;;;;;;;8.95;3.15;;;12.90;48.80;;;;;;5115324;27;20027;-74
2022/04/19 05:30:43;;;;;;;7.13;4.53;;;12.90;48.70;;;;;;5115654;27;20050;-74
2022/04/19 05:33:11;;;;;;;6.40;3.88;;;12.90;48.80;;;;;;5115616;28;20115;-74
2022/04/19 05:35:38;;;;;;;4.55;2.92;;;12.90;49.00;;;;;;5134399;28;20023;-74
2022/04/19 05:38:04;;;;;;;6.32;3.47;;;12.90;48.80;;;;;;5134321;28;20031;-74
2022/04/19 05:40:29;;;;;;;4.93;3.42;;;12.90;48.80;;;;;;5115181;28;20520;-74
2022/04/19 05:42:55;;;;;;;5.78;3.72;;;12.90;48.70;;;;;;5115015;28;20035;-75
2022/04/19 05:45:21;;;;;;;5.70;3.28;;;12.90;48.90;;;;;;5115874;27;20027;-74
2022/04/19 05:47:47;;;;;;;7.18;3.33;;;13.00;49.10;;;;;;5138440;27;20054;-75
2022/04/19 05:50:13;;;;;;;4.45;3.30;;;13.00;49.40;;;;;;5138027;27;20359;-74
2022/04/19 05:52:39;;;;;;;7.13;3.92;;;13.00;50.10;;;;;;5138259;27;20051;-75
2022/04/19 05:55:05;;;;;;;7.72;4.10;;;13.00;50.30;;;;;;5129160;27;20149;-74
2022/04/19 05:57:31;;;;;;;7.38;4.18;;;13.00;50.30;;;;;;5119557;27;20029;-74
2022/04/19 05:59:57;;;;;;;7.43;4.50;;;13.00;50.60;;;;;;5118780;27;20023;-74
2022/04/19 06:05:07;;;;;;;8.23;4.53;;;13.00;50.70;;;;;;5138170;27;20038;-74
2022/04/19 06:07:48;;;;;;;7.38;3.95;;;13.00;50.70;;;;;;5138273;27;20027;-74
2022/04/19 06:10:15;;;;;;;13.45;3.83;;;13.00;50.70;;;;;;5116432;27;20401;-74
2022/04/19 06:12:43;;;;;;;6.93;3.95;;;13.00;51.00;;;;;;5136357;27;20027;-74
2022/04/19 06:15:12;;;;;;;10.43;4.13;;;12.90;51.30;;;;;;5099403;28;20047;-74
2022/04/19 06:17:40;;;;;;;6.13;3.80;;;12.90;51.30;;;;;;5098955;28;20027;-74
2022/04/19 06:20:07;;;;;;;4.68;3.08;;;12.90;51.50;;;;;;5116926;28;20022;-74
2022/04/19 06:22:33;;;;;;;8.45;3.72;;;12.80;51.40;;;;;;5098633;28;20039;-74
2022/04/19 06:24:59;;;;;;;4.80;3.45;;;12.80;51.40;;;;;;5117105;28;20134;-74
2022/04/19 06:27:25;;;;;;;4.05;3.10;;;12.90;51.70;;;;;;5098865;28;20027;-74
2022/04/19 06:29:56;;;;;;;5.60;3.30;;;12.90;51.80;;;;;;5117101;28;20073;-74
2022/04/19 06:32:22;;;;;;;11.23;3.67;;;12.90;51.80;;;;;;5115155;27;20038;-74
2022/04/19 06:34:49;;;;;;;6.05;3.72;;;13.00;51.80;;;;;;5118965;27;20034;-74
2022/04/19 06:37:15;;;;;;;5.72;3.53;;;13.00;51.90;;;;;;5118478;27;20474;-75
2022/04/19 06:39:41;;;;;;;5.07;2.97;;;13.10;51.60;;;;;;5118722;27;20066;-75
2022/04/19 06:42:07;;;;;;;5.32;3.50;;;13.10;51.50;;;;;;5118885;27;20027;-75
2022/04/19 06:44:34;;;;;;;6.13;2.95;;;13.20;51.40;;;;;;5137346;27;20083;-74
2022/04/19 06:46:59;;;;;;;6.18;3.80;;;13.20;51.30;;;;;;5137339;27;20020;-75
2022/04/19 06:49:25;;;;;;;8.15;3.72;;;13.30;51.50;;;;;;5118742;27;20052;-74
2022/04/19 06:51:51;;;;;;;4.20;3.10;;;13.30;51.40;;;;;;5137193;27;20422;-75
2022/04/19 06:54:17;;;;;;;4.95;3.30;;;13.40;51.60;;;;;;5137193;27;20515;-75
2022/04/19 06:56:45;;;;;;;8.38;3.92;;;13.50;51.40;;;;;;5118502;27;20071;-75
2022/04/19 06:59:12;;;;;;;4.35;3.10;;;13.50;51.20;;;;;;5137358;27;20020;-74
2022/04/19 07:01:40;;;;;;;6.97;4.03;;;13.60;51.20;;;;;;5118425;27;20034;-74
2022/04/19 07:04:08;;;;;;;7.72;4.05;;;13.60;51.30;;;;;;5136728;27;20027;-75
2022/04/19 07:06:34;;;;;;;7.68;4.18;;;13.60;51.60;;;;;;5136756;27;20027;-74
2022/04/19 07:09:00;;;;;;;9.48;4.50;;;13.60;51.70;;;;;;5136608;27;20083;-74
2022/04/19 07:11:26;;;;;;;11.10;4.32;;;13.50;52.10;;;;;;5106170;27;20035;-74
2022/04/19 07:13:52;;;;;;;8.00;3.85;;;13.50;52.60;;;;;;5113434;27;20030;-74
2022/04/19 07:16:18;;;;;;;8.70;4.43;;;13.50;53.20;;;;;;5118380;27;20110;-75
2022/04/19 07:18:43;;;;;;;10.63;4.63;;;13.50;53.70;;;;;;5136586;27;20058;-74
2022/04/19 07:26:38;;;;;;;10.60;4.90;;;13.60;53.40;;;;;;5136530;27;20036;-74
2022/04/19 07:29:15;;;;;;;7.47;4.70;;;13.70;54.50;;;;;;5117853;27;20024;-75
2022/04/19 07:31:43;;;;;;;7.95;4.38;;;13.70;55.10;;;;;;5117920;27;20031;-70
2022/04/19 07:34:10;;;;;;;5.75;4.18;;;13.90;55.40;;;;;;5109605;28;20475;-75
2022/04/19 07:36:42;;;;;;;8.80;4.80;;;14.00;55.40;;;;;;5117605;27;20488;-74
2022/04/19 07:39:09;;;;;;;8.95;4.55;;;14.20;55.10;;;;;;5113567;27;20023;-73
2022/04/19 07:41:37;;;;;;;7.00;4.30;;;14.40;54.80;;;;;;5102704;28;20074;-74
2022/04/19 07:44:04;;;;;;;8.23;4.30;;;14.50;53.90;;;;;;5115581;28;20023;-73
2022/04/19 07:46:31;;;;;;;7.70;4.13;;;14.70;53.40;;;;;;5106084;28;20020;-74
2022/04/19 07:48:57;;;;;;;6.85;4.05;;;14.90;52.70;;;;;;5114128;28;20479;-74
2022/04/19 07:51:24;;;;;;;6.55;4.43;;;15.10;52.40;;;;;;5117032;27;20114;-74
2022/04/19 07:53:50;;;;;;;8.38;4.82;;;15.30;52.00;;;;;;5135587;27;20411;-74
2022/04/19 07:56:16;;;;;;;5.63;3.65;;;15.50;51.50;;;;;;5125842;27;20023;-74
2022/04/19 07:58:47;;;;;;;6.65;3.70;;;15.70;50.10;;;;;;5101329;27;20058;-74
2022/04/19 08:01:16;;;;;;;3.15;2.83;;;15.90;49.10;;;;;;5117038;27;20043;-73
2022/04/19 08:03:42;;;;;;;4.05;2.83;;;16.10;48.30;;;;;;5116828;27;20031;-74
2022/04/19 08:06:09;;;;;;;4.10;2.95;;;16.20;47.20;;;;;;5135554;27;20102;-74
2022/04/19 08:08:35;;;;;;;3.97;2.85;;;16.30;47.10;;;;;;5123219;27;20440;-74
2022/04/19 08:11:00;;;;;;;4.57;3.38;;;16.40;46.90;;;;;;5101504;28;20442;-74
2022/04/19 08:13:27;;;;;;;4.38;2.90;;;16.50;46.30;;;;;;5134105;27;20055;-74
2022/04/19 08:15:52;;;;;;;5.40;3.58;;;16.60;46.00;;;;;;5115618;27;20034;-74
2022/04/19 08:18:19;;;;;;;3.85;3.10;;;16.60;46.10;;;;;;5097972;27;20031;-74
2022/04/19 08:20:45;;;;;;;4.18;3.28;;;16.70;46.40;;;;;;5112290;27;20026;-73
2022/04/19 08:23:12;;;;;;;9.70;3.03;;;16.70;46.00;;;;;;5110700;27;20030;-75
2022/04/19 08:25:40;;;;;;;5.72;3.00;;;16.80;45.80;;;;;;5109978;28;20028;-74
2022/04/19 08:28:07;;;;;;;6.72;3.13;;;16.90;45.90;;;;;;5120051;27;20159;-73
2022/04/19 08:30:33;;;;;;;5.78;3.10;;;17.00;46.00;;;;;;5116061;27;20064;-77
2022/04/19 08:32:59;;;;;;;4.65;3.13;;;17.00;45.40;;;;;;5096543;28;20432;-74
2022/04/19 08:35:26;;;;;;;5.65;2.95;;;17.00;44.70;;;;;;5130258;27;20115;-74
2022/04/19 08:37:52;;;;;;;3.65;2.80;;;17.10;45.00;;;;;;5095536;28;20387;-74
2022/04/19 08:40:19;;;;;;;4.78;2.67;;;17.10;44.20;;;;;;5132994;27;20050;-73
2022/04/19 08:42:46;;;;;;;4.93;2.42;;;17.00;44.10;;;;;;5116292;27;20038;-74
2022/04/19 08:45:14;;;;;;;4.32;2.38;;;17.00;44.20;;;;;;5116338;27;20026;-74
2022/04/19 08:47:46;;;;;;;6.13;2.90;;;17.00;44.60;;;;;;5116861;27;20147;-74
2022/04/19 08:50:14;;;;;;;4.95;3.00;;;17.00;44.30;;;;;;5116277;27;20027;-74
2022/04/19 08:52:41;;;;;;;4.05;2.85;;;17.00;44.90;;;;;;5116485;27;20027;-74
2022/04/19 08:57:53;;;;;;;3.80;2.80;;;17.00;44.20;;;;;;5134832;27;20075;-74
2022/04/19 09:00:22;;;;;;;4.47;2.38;;;16.90;43.90;;;;;;5112365;28;20065;-74
2022/04/19 09:02:52;;;;;;;3.47;2.42;;;16.90;43.70;;;;;;5115549;27;20042;-74
2022/04/19 09:05:26;;;;;;;3.60;2.40;;;16.80;43.40;;;;;;5112617;28;20023;-74
2022/04/19 09:07:54;;;;;;;4.75;2.97;;;16.80;43.50;;;;;;5117356;27;20023;-74
2022/04/19 09:10:33;;;;;;;7.38;3.42;;;16.80;43.90;;;;;;5115754;27;20060;-74
2022/04/19 09:13:10;;;;;;;7.63;3.55;;;16.70;43.90;;;;;;5116209;27;20027;-74
2022/04/19 09:15:38;;;;;;;9.07;3.33;;;16.60;43.90;;;;;;5115998;27;20030;-73
2022/04/19 09:18:05;;;;;;;10.52;3.40;;;16.50;43.70;;;;;;5107554;28;20023;-73
2022/04/19 09:20:31;;;;;;;4.03;2.67;;;16.50;44.00;;;;;;5110026;28;20032;-74
2022/04/19 09:23:03;;;;;;;4.30;2.80;;;16.50;44.50;;;;;;5115749;27;20024;-73
2022/04/19 09:25:30;;;;;;;4.30;2.80;;;16.40;44.10;;;;;;5115685;27;20035;-74
2022/04/19 09:27:56;;;;;;;7.10;3.83;;;16.40;44.50;;;;;;5115105;28;20181;-73
2022/04/19 09:30:32;;;;;;;5.53;2.65;;;16.40;44.90;;;;;;5115126;28;20031;-73
2022/04/19 09:33:15;;;;;;;19.10;2.80;;;16.40;44.50;;;;;;5111380;28;20027;-72
2022/04/19 09:35:50;;;;;;;4.70;2.60;;;16.40;44.60;;;;;;5119317;28;20076;-74
2022/04/19 09:38:17;;;;;;;5.03;2.47;;;16.40;45.30;;;;;;5134394;28;20420;-74
2022/04/19 09:40:48;;;;;;;4.97;2.50;;;16.50;44.70;;;;;;5133197;27;20051;-74
2022/04/19 09:43:20;;;;;;;20.35;3.67;;;16.50;44.90;;;;;;5127566;28;20051;-74
2022/04/19 09:45:58;;;;;;;4.47;2.47;;;16.50;44.90;;;;;;5112171;28;20019;-74
2022/04/19 09:48:28;;;;;;;7.50;2.75;;;16.50;45.30;;;;;;5133584;28;20431;-74
2022/04/19 09:51:02;;;;;;;6.22;3.38;;;16.50;45.70;;;;;;5133983;28;20098;-74
2022/04/19 09:53:42;;;;;;;8.40;2.75;;;16.50;45.70;;;;;;5115586;28;20122;-74
2022/04/19 09:56:10;;;;;;;3.83;2.67;;;16.50;46.00;;;;;;5112639;28;20076;-74
2022/04/19 09:58:38;;;;;;;5.57;2.60;;;16.60;45.70;;;;;;5134415;28;20019;-74
2022/04/19 10:01:04;;;;;;;4.20;2.85;;;16.60;45.20;;;;;;5115428;28;20027;-74
2022/04/19 10:09:04;;;;;;;5.60;2.55;;;16.70;45.60;;;;;;5134007;28;20091;-74
2022/04/19 10:11:30;;;;;;;4.25;2.47;;;16.80;46.10;;;;;;5115541;28;20031;-74
2022/04/19 10:13:57;;;;;;;5.32;2.90;;;16.80;46.10;;;;;;5126870;28;20031;-74
2022/04/19 10:16:24;;;;;;;7.72;2.72;;;16.90;45.30;;;;;;5115025;28;20368;-74
2022/04/19 10:18:50;;;;;;;4.25;2.40;;;16.90;45.50;;;;;;5115541;28;20019;-73
2022/04/19 10:21:30;;;;;;;4.65;2.72;;;16.90;45.80;;;;;;5114530;28;20019;-74
2022/04/19 10:24:28;;;;;;;7.95;3.10;;;16.90;45.80;;;;;;5115007;28;20399;-74
2022/04/19 10:26:54;;;;;;;7.25;3.20;;;17.00;45.60;;;;;;5050934;28;20036;-74
2022/04/19 10:29:25;;;;;;;5.32;2.88;;;17.00;45.20;;;;;;5053404;28;20094;-74
2022/04/19 10:32:03;;;;;;;4.32;2.70;;;17.00;45.30;;;;;;5054565;28;20029;-73
2022/04/19 10:34:33;;;;;;;5.53;3.00;;;17.00;45.10;;;;;;5057106;28;20028;-73
2022/04/19 10:37:21;;;;;;;4.28;2.90;;;17.10;45.20;;;;;;5073854;28;20044;-73
2022/04/19 10:39:52;;;;;;;4.97;3.00;;;17.10;45.80;;;;;;5056844;28;20067;-73
2022/04/19 10:42:38;;;;;;;3.95;2.65;;;17.10;46.20;;;;;;5056860;28;20040;-73
2022/04/19 10:45:12;;;;;;;5.10;2.97;;;17.00;47.10;;;;;;5056966;28;20079;-74
2022/04/19 10:47:53;;;;;;;3.75;2.67;;;17.00;47.10;;;;;;5056875;28;20025;-76
2022/04/19 10:50:51;;;;;;;5.78;2.67;;;16.90;47.30;;;;;;5056730;28;20071;-74
2022/04/19 10:53:17;;;;;;;5.75;2.97;;;16.80;46.90;;;;;;4997549;28;20141;-74
2022/04/19 10:56:01;;;;;;;4.75;3.10;;;16.70;47.30;;;;;;4997247;28;20038;-74
2022/04/19 10:58:41;;;;;;;5.05;2.72;;;16.70;47.50;;;;;;5013747;28;20097;-74
2022/04/19 11:01:27;;;;;;;3.05;2.30;;;16.60;47.60;;;;;;5013765;28;20040;-74
2022/04/19 11:03:53;;;;;;;3.75;2.40;;;16.70;46.60;;;;;;5033337;28;20077;-74
2022/04/19 11:06:37;;;;;;;5.03;2.55;;;16.70;47.30;;;;;;5033433;28;20036;-74
2022/04/19 11:09:08;;;;;;;4.38;2.88;;;16.70;47.30;;;;;;5016625;28;20409;-74
2022/04/19 11:11:56;;;;;;;6.00;2.50;;;16.80;46.90;;;;;;5016742;28;20033;-74
2022/04/19 11:14:23;;;;;;;3.90;2.42;;;16.80;46.40;;;;;;5033463;28;20116;-74
2022/04/19 11:17:12;;;;;;;3.67;2.58;;;16.90;46.70;;;;;;5033183;28;20056;-74
2022/04/19 11:19:38;;;;;;;3.28;2.40;;;16.90;46.60;;;;;;5016596;28;20129;-74
2022/04/19 11:22:04;;;;;;;4.70;2.55;;;17.00;47.00;;;;;;5033006;28;20124;-74
2022/04/19 11:25:04;;;;;;;4.72;2.40;;;17.20;46.40;;;;;;5025797;28;20060;-75
2022/04/19 11:27:54;;;;;;;2.83;2.40;;;17.40;46.70;;;;;;5036037;28;20029;-74
2022/04/19 11:30:20;;;;;;;3.75;2.65;;;17.60;46.20;;;;;;5095753;28;20024;-74
2022/04/19 11:32:58;;;;;;;4.53;2.30;;;17.80;46.20;;;;;;5097680;28;20467;-74
2022/04/19 11:35:26;;;;;;;3.53;2.20;;;18.00;45.70;;;;;;5097714;28;20023;-74
2022/04/19 11:37:52;;;;;;;4.65;2.80;;;18.20;45.20;;;;;;5097386;28;20367;-74
2022/04/19 11:48:50;;;;;;;;;;;18.70;42.90;;;;;;5116005;28;20030;-74
2022/04/19 11:51:19;;;;;;;5.95;2.20;;;18.90;44.20;;;;;;5097356;28;20259;-75
2022/04/19 11:53:46;;;;;;;9.07;2.63;;;19.00;43.30;;;;;;5097195;28;20356;-74
2022/04/19 11:56:12;;;;;;;6.43;3.00;;;19.20;42.00;;;;;;5097167;28;20049;-74
2022/04/19 11:58:46;;;;;;;7.75;3.08;;;19.30;41.60;;;;;;5097117;28;20463;-74
2022/04/19 12:01:14;;;;;;;15.77;3.65;;;19.30;41.10;;;;;;5096896;28;20031;-73
2022/04/19 12:03:40;;;;;;;12.05;3.47;;;19.40;40.80;;;;;;5096880;28;20035;-74
2022/04/19 12:06:07;;;;;;;4.55;2.53;;;19.30;39.80;;;;;;5096893;28;20027;-74
2022/04/19 12:08:39;;;;;;;4.75;2.50;;;19.10;39.50;;;;;;5115199;28;20077;-74
2022/04/19 12:11:07;;;;;;;4.63;2.80;;;18.90;39.80;;;;;;5096950;28;20395;-75
2022/04/19 12:13:34;;;;;;;4.47;3.08;;;18.70;39.90;;;;;;5096814;28;20027;-75
2022/04/19 12:16:01;;;;;;;7.38;3.45;;;18.60;41.40;;;;;;5114791;28;20022;-74
2022/04/19 12:18:35;;;;;;;5.45;3.10;;;18.50;41.30;;;;;;5114876;28;20023;-74
2022/04/19 12:21:01;;;;;;;;;;;18.40;41.70;;;;;;5096868;28;20087;-74
2022/04/19 12:23:27;;;;;;;4.93;2.92;;;18.40;41.90;;;;;;5108653;27;19994;-74
2022/04/19 12:26:06;;;;;;;6.28;2.85;;;18.20;41.10;;;;;;5116770;27;20027;-74
2022/04/19 12:28:38;;;;;;;5.35;2.95;;;18.10;41.60;;;;;;5116841;27;20438;-74
2022/04/19 12:31:04;;;;;;;18.23;3.45;;;18.10;42.40;;;;;;5116721;27;20023;-74
2022/04/19 12:33:30;;;;;;;10.23;3.50;;;18.10;42.00;;;;;;5116446;27;20027;-75
2022/04/19 12:35:57;;;;;;;10.25;3.10;;;18.00;42.50;;;;;;5135367;27;20112;-75
2022/04/19 12:38:31;;;;;;;7.55;3.00;;;18.00;42.10;;;;;;5116688;27;20125;-74
2022/04/19 12:40:58;;;;;;;9.38;2.78;;;18.00;42.30;;;;;;5116309;27;20087;-74
2022/04/19 12:43:44;;;;;;;6.70;2.83;;;18.00;42.30;;;;;;5116672;27;20066;-74
2022/04/19 12:46:14;;;;;;;11.52;3.67;;;18.10;42.60;;;;;;5116645;27;20519;-73
2022/04/19 12:48:40;;;;;;;6.82;2.88;;;18.20;42.70;;;;;;5116142;27;20033;-76
2022/04/19 12:51:06;;;;;;;6.30;2.60;;;18.20;41.20;;;;;;5116546;27;20027;-74
2022/04/19 12:53:35;;;;;;;4.70;2.78;;;18.20;41.80;;;;;;5116446;27;20031;-75
2022/04/19 12:56:10;;;;;;;6.65;2.50;;;18.20;41.10;;;;;;5116287;27;20031;-74
2022/04/19 12:58:46;;;;;;;3.53;2.03;;;18.20;41.30;;;;;;5116297;27;20023;-74
2022/04/19 13:01:13;;;;;;;8.90;2.17;;;18.10;41.00;;;;;;5116233;27;20031;-74
2022/04/19 13:03:39;;;;;;;14.57;2.63;;;18.00;40.70;;;;;;5116262;27;20027;-74
2022/04/19 13:14:18;;;;;;;3.47;2.08;;;17.20;43.00;;;;;;5134761;27;20054;-74
2022/04/19 13:16:44;;;;;;;3.67;2.40;;;17.00;45.50;;;;;;5116015;27;20031;-75
2022/04/19 13:19:09;;;;;;;2.30;1.88;;;16.80;47.90;;;;;;5115940;27;20034;-75
2022/04/19 13:21:35;;;;;;;4.18;2.50;;;16.60;47.70;;;;;;5115878;27;20038;-74
2022/04/19 13:24:01;;;;;;;2.72;2.10;;;16.30;48.10;;;;;;5115968;27;20466;-74
2022/04/19 13:26:28;;;;;;;5.50;2.22;;;16.10;47.60;;;;;;5116023;27;20023;-74
2022/04/19 13:28:54;;;;;;;3.25;2.40;;;15.70;46.80;;;;;;5115541;27;20038;-74
2022/04/19 13:31:22;;;;;;;19.35;2.67;;;15.30;47.50;;;;;;5116101;28;20027;-75
2022/04/19 13:33:48;;;;;;;2.97;2.20;;;15.00;48.50;;;;;;5115820;28;20106;-74
2022/04/19 13:36:13;;;;;;;2.50;1.88;;;14.70;51.20;;;;;;5134400;27;20058;-74
2022/04/19 13:38:39;;;;;;;2.97;1.88;;;14.40;52.40;;;;;;5134433;28;20050;-74